createdAt,value
2022-08-05T00:00:15.912Z,5.13
2022-08-05T00:02:51.008Z,4.85
2022-08-05T00:06:02.133Z,4.70
2022-08-05T00:08:33.069Z,4.88
2022-08-05T00:11:00.313Z,4.85
2022-08-05T00:13:38.405Z,4.93
2022-08-05T00:16:08.578Z,4.95
2022-08-05T00:18:36.478Z,4.63
2022-08-05T00:21:06.470Z,4.78
2022-08-05T00:23:46.950Z,4.72
2022-08-05T00:26:23.479Z,4.83
2022-08-05T00:28:51.507Z,4.70
2022-08-05T00:31:53.933Z,5.15
2022-08-05T00:34:54.674Z,4.57
2022-08-05T00:37:10.960Z,4.63
2022-08-05T00:39:57.509Z,4.30
2022-08-05T00:42:35.334Z,4.82
2022-08-05T00:45:05.123Z,4.78
2022-08-05T00:47:57.425Z,4.63
2022-08-05T00:50:25.292Z,4.88
2022-08-05T00:52:54.899Z,4.80
2022-08-05T00:55:22.862Z,4.50
2022-08-05T00:57:58.169Z,5.15
2022-08-05T01:00:26.987Z,4.32
2022-08-05T01:02:54.755Z,4.45
2022-08-05T01:05:22.470Z,3.87
2022-08-05T01:08:29.870Z,4.35
2022-08-05T01:10:51.610Z,4.50
2022-08-05T01:13:27.445Z,4.50
2022-08-05T01:16:13.806Z,3.97
2022-08-05T01:18:56.154Z,4.40
2022-08-05T01:21:38.325Z,4.70
2022-08-05T01:24:14.339Z,4.97
2022-08-05T01:26:48.108Z,4.88
2022-08-05T01:29:22.975Z,4.90
2022-08-05T01:31:52.316Z,4.60
2022-08-05T01:34:22.743Z,4.65
2022-08-05T01:37:00.464Z,4.53
2022-08-05T01:39:34.542Z,4.75
2022-08-05T01:42:17.222Z,5.10
2022-08-05T01:44:53.881Z,4.67
2022-08-05T01:47:23.198Z,4.30
2022-08-05T01:50:02.296Z,4.25
2022-08-05T01:52:31.016Z,4.00
2022-08-05T01:55:02.428Z,4.28
2022-08-05T01:58:10.467Z,4.30
2022-08-05T02:00:30.376Z,4.05
2022-08-05T02:02:59.460Z,4.22
2022-08-05T02:05:34.086Z,4.07
2022-08-05T02:08:02.168Z,3.90
2022-08-05T02:10:31.962Z,4.10
2022-08-05T02:13:02.545Z,4.70
2022-08-05T02:15:36.067Z,3.72
2022-08-05T02:18:31.307Z,4.00
2022-08-05T02:20:54.748Z,4.38
2022-08-05T02:23:29.313Z,3.80
2022-08-05T02:26:01.571Z,4.35
2022-08-05T02:28:36.446Z,4.65
2022-08-05T02:31:14.627Z,4.22
2022-08-05T02:33:44.962Z,4.32
2022-08-05T02:36:18.157Z,4.33
2022-08-05T02:38:53.108Z,4.03
2022-08-05T02:41:23.001Z,3.80
2022-08-05T02:44:02.497Z,4.25
2022-08-05T02:46:36.493Z,4.20
2022-08-05T02:49:21.872Z,4.40
2022-08-05T02:52:03.965Z,4.28
2022-08-05T02:54:35.080Z,4.85
2022-08-05T02:57:05.235Z,4.43
2022-08-05T02:59:50.685Z,4.50
2022-08-05T03:02:27.548Z,4.30
2022-08-05T03:04:56.095Z,5.40
2022-08-05T03:07:48.482Z,4.97
2022-08-05T03:10:13.342Z,4.32
2022-08-05T03:12:41.294Z,4.38
2022-08-05T03:15:10.301Z,4.03
2022-08-05T03:17:41.523Z,4.25
2022-08-05T03:20:10.415Z,4.25
2022-08-05T03:22:38.166Z,4.28
2022-08-05T03:25:32.809Z,4.05
2022-08-05T03:28:00.826Z,4.30
2022-08-05T03:30:33.609Z,4.40
2022-08-05T03:33:04.379Z,4.18
2022-08-05T03:35:40.823Z,4.60
2022-08-05T03:38:09.383Z,4.38
2022-08-05T03:40:40.598Z,4.30
2022-08-05T03:43:59.198Z,4.15
2022-08-05T03:45:58.056Z,4.03
2022-08-05T03:48:29.260Z,4.05
2022-08-05T03:52:37.323Z,3.85
2022-08-05T03:55:00.349Z,4.17
2022-08-05T03:56:41.445Z,4.00
2022-08-05T03:59:11.639Z,3.95
2022-08-05T04:01:41.404Z,4.40
2022-08-05T04:04:15.065Z,3.80
2022-08-05T04:06:51.266Z,3.50
2022-08-05T04:09:25.856Z,3.75
2022-08-05T04:11:54.188Z,3.40
2022-08-05T04:14:30.331Z,3.70
2022-08-05T04:16:59.369Z,4.82
2022-08-05T04:19:28.494Z,4.10
2022-08-05T04:22:08.964Z,3.67
2022-08-05T04:24:43.788Z,3.83
2022-08-05T04:27:12.808Z,3.70
2022-08-05T04:29:40.426Z,3.78
2022-08-05T04:32:08.546Z,3.60
2022-08-05T04:34:42.655Z,3.45
2022-08-05T04:37:11.230Z,3.95
2022-08-05T04:39:39.227Z,3.72
2022-08-05T04:42:08.104Z,3.90
2022-08-05T04:44:36.756Z,4.17
2022-08-05T04:47:09.052Z,4.25
2022-08-05T04:50:01.515Z,3.80
2022-08-05T04:52:27.488Z,3.95
2022-08-05T04:54:57.429Z,4.30
2022-08-05T04:57:28.687Z,4.00
2022-08-05T04:59:56.974Z,4.10
2022-08-05T05:02:36.766Z,3.53
2022-08-05T05:05:16.538Z,3.60
2022-08-05T05:07:56.225Z,3.63
2022-08-05T05:10:29.550Z,4.10
2022-08-05T05:12:57.442Z,3.83
2022-08-05T05:15:57.246Z,3.85
2022-08-05T05:18:14.102Z,4.05
2022-08-05T05:20:43.473Z,3.53
2022-08-05T05:23:19.853Z,3.50
2022-08-05T05:25:47.943Z,3.45
2022-08-05T05:28:15.544Z,3.70
2022-08-05T05:30:43.273Z,3.40
2022-08-05T05:33:17.868Z,3.35
2022-08-05T05:35:52.586Z,3.10
2022-08-05T05:38:27.047Z,3.17
2022-08-05T05:40:55.711Z,3.08
2022-08-05T05:43:54.626Z,2.63
2022-08-05T05:46:17.314Z,2.85
2022-08-05T05:48:46.086Z,2.90
2022-08-05T05:51:20.895Z,2.70
2022-08-05T05:53:58.234Z,2.95
2022-08-05T05:56:32.326Z,2.65
2022-08-05T05:59:03.580Z,2.70
2022-08-05T06:01:37.097Z,2.37
2022-08-05T06:04:06.090Z,2.30
2022-08-05T06:06:35.956Z,2.83
2022-08-05T06:09:04.221Z,2.33
2022-08-05T06:11:31.876Z,2.30
2022-08-05T06:14:00.462Z,2.03
2022-08-05T06:16:33.061Z,2.20
2022-08-05T06:19:05.915Z,2.22
2022-08-05T06:21:37.528Z,2.42
2022-08-05T06:24:07.591Z,2.00
2022-08-05T06:26:35.355Z,2.00
2022-08-05T06:29:23.705Z,1.67
2022-08-05T06:31:51.380Z,2.17
2022-08-05T06:34:20.430Z,2.10
2022-08-05T06:36:57.523Z,2.20
2022-08-05T06:39:27.062Z,1.90
2022-08-05T06:41:55.307Z,1.58
2022-08-05T06:44:23.390Z,1.90
2022-08-05T06:46:51.271Z,1.80
2022-08-05T06:49:21.297Z,2.17
2022-08-05T06:51:50.464Z,1.80
2022-08-05T06:54:18.237Z,1.70
2022-08-05T06:56:54.813Z,1.85
2022-08-05T06:59:38.919Z,1.42
2022-08-05T07:02:10.373Z,1.60
2022-08-05T07:04:38.003Z,1.70
2022-08-05T07:07:08.066Z,1.90
2022-08-05T07:09:40.420Z,1.80
2022-08-05T07:12:08.886Z,2.35
2022-08-05T07:14:50.332Z,2.00
2022-08-05T07:17:56.237Z,2.00
2022-08-05T07:22:58.621Z,1.60
2022-08-05T07:25:55.348Z,1.73
2022-08-05T07:28:17.161Z,1.60
2022-08-05T07:30:47.487Z,1.53
2022-08-05T07:33:17.881Z,1.67
2022-08-05T07:36:02.996Z,1.60
2022-08-05T07:38:42.554Z,1.50
2022-08-05T07:42:08.400Z,1.70
2022-08-05T07:44:01.187Z,1.50
2022-08-05T07:46:29.423Z,1.90
2022-08-05T07:49:02.125Z,2.03
2022-08-05T07:51:36.917Z,1.60
2022-08-05T07:54:10.397Z,1.65
2022-08-05T07:57:02.295Z,1.50
2022-08-05T07:59:38.871Z,1.88
2022-08-05T08:02:15.958Z,1.50
2022-08-05T08:04:45.568Z,1.50
2022-08-05T08:07:13.456Z,1.65
2022-08-05T08:09:42.359Z,1.50
2022-08-05T08:12:19.031Z,1.77
2022-08-05T08:15:02.743Z,1.40
2022-08-05T08:17:31.330Z,1.58
2022-08-05T08:20:22.499Z,1.77
2022-08-05T08:22:51.401Z,1.37
2022-08-05T08:25:26.849Z,1.23
2022-08-05T08:28:18.495Z,1.70
2022-08-05T08:30:47.917Z,1.75
2022-08-05T08:33:17.716Z,1.48
2022-08-05T08:35:52.828Z,1.73
2022-08-05T08:38:35.350Z,1.42
2022-08-05T08:41:06.942Z,1.60
2022-08-05T08:45:20.785Z,1.70
2022-08-05T08:46:24.516Z,1.70
2022-08-05T08:49:07.776Z,1.70
2022-08-05T08:52:03.820Z,1.70
2022-08-05T08:54:31.508Z,1.60
2022-08-05T08:57:01.571Z,2.10
2022-08-05T08:59:33.406Z,2.25
2022-08-05T09:02:02.595Z,2.13
2022-08-05T09:04:36.298Z,2.10
2022-08-05T09:07:29.227Z,2.22
2022-08-05T09:10:07.492Z,2.10
2022-08-05T09:12:36.690Z,2.25
2022-08-05T09:15:05.882Z,2.67
2022-08-05T09:17:41.354Z,2.50
2022-08-05T09:20:11.658Z,2.22
2022-08-05T09:23:05.332Z,2.40
2022-08-05T09:26:01.346Z,2.10
2022-08-05T09:28:31.922Z,1.80
2022-08-05T09:31:18.212Z,2.05
2022-08-05T09:33:52.856Z,1.87
2022-08-05T09:36:21.494Z,2.30
2022-08-05T09:38:59.084Z,2.20
2022-08-05T09:41:26.818Z,2.53
2022-08-05T09:44:02.194Z,3.03
2022-08-05T09:46:30.239Z,2.40
2022-08-05T09:49:07.637Z,3.13
2022-08-05T09:51:49.915Z,2.80
2022-08-05T09:54:21.395Z,3.00
2022-08-05T09:57:01.323Z,2.77
2022-08-05T09:59:35.087Z,2.63
2022-08-05T10:02:04.859Z,2.10
2022-08-05T10:04:38.594Z,1.90
2022-08-05T10:07:20.009Z,2.50
2022-08-05T10:10:14.573Z,2.75
2022-08-05T10:12:49.241Z,2.42
2022-08-05T10:15:20.874Z,2.45
2022-08-05T10:18:04.363Z,2.22
2022-08-05T10:20:33.661Z,2.10
2022-08-05T10:23:01.574Z,1.73
2022-08-05T10:25:29.234Z,1.67
2022-08-05T10:28:12.845Z,1.73
2022-08-05T10:32:50.500Z,1.90
2022-08-05T10:33:35.356Z,1.60
2022-08-05T10:36:04.942Z,1.80
2022-08-05T10:38:33.446Z,1.40
2022-08-05T10:41:06.394Z,1.25
2022-08-05T10:43:41.530Z,1.88
2022-08-05T10:46:11.857Z,1.70
2022-08-05T10:48:52.564Z,1.80
2022-08-05T10:51:28.969Z,1.80
2022-08-05T10:53:58.571Z,1.60
2022-08-05T10:56:30.170Z,2.08
2022-08-05T10:59:12.220Z,1.60
2022-08-05T11:02:07.583Z,1.52
2022-08-05T11:04:44.123Z,1.70
2022-08-05T11:07:16.223Z,1.40
2022-08-05T11:09:47.524Z,1.70
2022-08-05T11:12:33.887Z,1.70
2022-08-05T11:15:19.776Z,1.70
2022-08-05T11:17:58.650Z,1.60
2022-08-05T11:20:43.720Z,1.50
2022-08-05T11:24:02.666Z,1.50
2022-08-05T11:26:32.952Z,2.05
2022-08-05T11:29:12.567Z,2.20
2022-08-05T11:31:57.686Z,1.87
2022-08-05T11:34:38.296Z,1.90
2022-08-05T11:38:26.182Z,2.30
2022-08-05T11:40:00.766Z,1.70
2022-08-05T11:42:32.608Z,1.88
2022-08-05T11:45:26.817Z,2.00
2022-08-05T11:47:55.069Z,2.03
2022-08-05T11:50:25.212Z,1.50
2022-08-05T11:52:57.231Z,1.60
2022-08-05T11:55:32.188Z,2.05
2022-08-05T11:58:11.012Z,1.80
2022-08-05T12:00:41.307Z,1.40
2022-08-05T12:03:29.556Z,1.60
2022-08-05T12:06:02.051Z,1.50
2022-08-05T12:08:31.574Z,1.52
2022-08-05T12:11:03.411Z,1.75
2022-08-05T12:13:49.335Z,1.90
2022-08-05T12:16:19.457Z,1.55
2022-08-05T12:18:48.678Z,1.75
2022-08-05T12:21:23.617Z,1.60
2022-08-05T12:23:55.122Z,1.90
2022-08-05T12:26:23.831Z,1.97
2022-08-05T12:28:51.958Z,1.58
2022-08-05T12:31:23.435Z,1.30
2022-08-05T12:34:01.611Z,1.50
2022-08-05T12:36:32.283Z,1.73
2022-08-05T12:39:00.236Z,1.47
2022-08-05T12:41:34.357Z,1.50
2022-08-05T12:44:02.916Z,1.70
2022-08-05T12:46:31.621Z,1.42
2022-08-05T12:48:59.896Z,1.50
2022-08-05T12:52:14.113Z,1.53
2022-08-05T12:54:26.439Z,1.40
2022-08-05T12:56:54.971Z,1.40
2022-08-05T12:59:27.635Z,1.55
2022-08-05T13:02:11.685Z,1.60
2022-08-05T13:04:41.856Z,1.20
2022-08-05T13:07:41.392Z,1.30
2022-08-05T13:10:12.926Z,1.30
2022-08-05T13:12:42.698Z,1.25
2022-08-05T13:15:24.529Z,1.33
2022-08-05T13:18:07.128Z,1.40
2022-08-05T13:20:35.637Z,1.63
2022-08-05T13:23:08.449Z,1.48
2022-08-05T13:25:52.253Z,1.50
2022-08-05T13:28:24.998Z,1.60
2022-08-05T13:30:53.448Z,1.47
2022-08-05T13:34:22.157Z,1.27
2022-08-05T13:36:09.588Z,1.52
2022-08-05T13:38:42.474Z,1.33
2022-08-05T13:41:12.038Z,1.40
2022-08-05T13:43:45.165Z,1.40
2022-08-05T13:46:37.787Z,1.30
2022-08-05T13:49:11.759Z,1.60
2022-08-05T13:51:41.138Z,1.40
2022-08-05T13:54:11.736Z,1.50
2022-08-05T13:56:45.252Z,1.30
2022-08-05T13:59:20.222Z,1.58
2022-08-05T14:01:57.651Z,1.48
2022-08-05T14:04:50.139Z,1.40
2022-08-05T14:07:56.996Z,1.55
2022-08-05T14:10:08.434Z,1.30
2022-08-05T14:12:37.787Z,1.40
2022-08-05T14:16:09.255Z,1.30
2022-08-05T14:17:59.724Z,1.58
2022-08-05T14:20:29.527Z,1.80
2022-08-05T14:22:57.267Z,1.50
2022-08-05T14:25:28.102Z,1.67
2022-08-05T14:27:58.308Z,1.30
2022-08-05T14:30:27.715Z,1.60
2022-08-05T14:32:56.912Z,1.35
2022-08-05T14:35:36.916Z,2.00
2022-08-05T14:38:05.193Z,2.00
2022-08-05T14:40:32.764Z,1.50
2022-08-05T14:43:02.934Z,1.30
2022-08-05T14:45:30.505Z,1.80
2022-08-05T14:48:05.836Z,1.37
2022-08-05T14:50:39.775Z,2.85
2022-08-05T14:53:08.219Z,2.67
2022-08-05T14:55:39.088Z,2.08
2022-08-05T14:58:11.066Z,1.50
2022-08-05T15:00:58.321Z,1.80
2022-08-05T15:03:27.610Z,1.40
2022-08-05T15:06:08.059Z,1.50
2022-08-05T15:08:59.517Z,1.40
2022-08-05T15:11:52.903Z,1.50
2022-08-05T15:14:33.266Z,1.20
2022-08-05T15:17:03.746Z,1.20
2022-08-05T15:19:31.672Z,1.30
2022-08-05T15:22:01.156Z,1.35
2022-08-05T15:24:29.094Z,1.13
2022-08-05T15:26:57.194Z,1.30
2022-08-05T15:29:30.229Z,1.30
2022-08-05T15:32:02.356Z,1.33
2022-08-05T15:34:33.209Z,1.30
2022-08-05T15:37:06.469Z,1.20
2022-08-05T15:41:00.736Z,1.20
2022-08-05T15:42:55.290Z,1.27
2022-08-05T15:45:18.721Z,1.20
2022-08-05T15:47:50.890Z,1.40
2022-08-05T15:50:21.973Z,1.40
2022-08-05T15:52:55.294Z,1.23
2022-08-05T15:55:24.897Z,1.58
2022-08-05T15:58:16.403Z,1.23
2022-08-05T16:00:50.601Z,1.10
2022-08-05T16:03:32.590Z,1.30
2022-08-05T16:06:01.401Z,1.10
2022-08-05T16:08:30.475Z,1.20
2022-08-05T16:10:58.610Z,1.20
2022-08-05T16:13:34.501Z,1.20
2022-08-05T16:16:04.171Z,1.20
2022-08-05T16:18:32.868Z,1.23
2022-08-05T16:21:04.157Z,1.30
2022-08-05T16:23:32.937Z,1.10
2022-08-05T16:26:26.282Z,1.17
2022-08-05T16:28:54.698Z,1.30
2022-08-05T16:31:23.885Z,1.20
2022-08-05T16:33:52.111Z,1.08
2022-08-05T16:36:23.846Z,1.10
2022-08-05T16:38:54.818Z,1.20
2022-08-05T16:42:13.815Z,1.30
2022-08-05T16:44:11.700Z,1.23
2022-08-05T16:46:41.366Z,1.30
2022-08-05T16:49:23.978Z,1.20
2022-08-05T16:51:54.996Z,1.30
2022-08-05T16:54:28.886Z,1.38
2022-08-05T16:56:59.769Z,1.20
2022-08-05T16:59:27.675Z,1.23
2022-08-05T17:01:57.022Z,1.45
2022-08-05T17:04:26.553Z,1.45
2022-08-05T17:06:55.383Z,1.50
2022-08-05T17:09:23.392Z,1.53
2022-08-05T17:11:55.978Z,1.50
2022-08-05T17:14:36.773Z,1.60
2022-08-05T17:17:14.635Z,1.80
2022-08-05T17:19:45.663Z,1.60
2022-08-05T17:22:24.986Z,1.70
2022-08-05T17:24:57.795Z,1.70
2022-08-05T17:27:26.376Z,1.60
2022-08-05T17:30:00.762Z,1.60
2022-08-05T17:32:33.776Z,1.50
2022-08-05T17:35:02.529Z,1.60
2022-08-05T17:37:41.583Z,1.92
2022-08-05T17:40:14.400Z,1.70
2022-08-05T17:42:50.431Z,1.60
2022-08-05T17:45:21.530Z,1.65
2022-08-05T17:47:56.052Z,2.90
2022-08-05T17:50:28.587Z,1.77
2022-08-05T17:52:59.884Z,1.75
2022-08-05T17:55:34.210Z,2.10
2022-08-05T17:58:02.393Z,2.28
2022-08-05T18:00:30.110Z,1.70
2022-08-05T18:02:59.049Z,1.73
2022-08-05T18:05:28.131Z,1.50
2022-08-05T18:07:56.906Z,1.60
2022-08-05T18:10:24.588Z,1.48
2022-08-05T18:12:53.386Z,1.33
2022-08-05T18:15:21.095Z,1.13
2022-08-05T18:17:58.856Z,1.10
2022-08-05T18:20:32.145Z,1.00
2022-08-05T18:23:00.375Z,1.27
2022-08-05T18:25:38.989Z,1.10
2022-08-05T18:28:06.948Z,1.02
2022-08-05T18:30:34.656Z,1.00
2022-08-05T18:33:02.585Z,1.05
2022-08-05T18:36:01.126Z,1.23
2022-08-05T18:38:26.028Z,1.20
2022-08-05T18:41:53.579Z,1.20
2022-08-05T18:43:42.690Z,1.20
2022-08-05T18:46:10.882Z,1.00
2022-08-05T18:48:41.632Z,1.00
2022-08-05T18:52:02.989Z,1.60
2022-08-05T18:54:16.395Z,1.10
2022-08-05T18:56:51.088Z,1.20
2022-08-05T18:59:42.874Z,1.40
2022-08-05T19:02:11.423Z,1.40
2022-08-05T19:05:02.672Z,1.20
2022-08-05T19:07:46.049Z,1.27
2022-08-05T19:10:14.291Z,1.40
2022-08-05T19:12:43.064Z,1.40
2022-08-05T19:15:58.138Z,1.70
2022-08-05T19:18:08.355Z,1.60
2022-08-05T19:20:41.660Z,1.60
2022-08-05T19:24:04.096Z,1.85
2022-08-05T19:26:03.370Z,1.60
2022-08-05T19:28:31.157Z,1.60
2022-08-05T19:31:01.015Z,1.60
2022-08-05T19:33:35.503Z,1.50
2022-08-05T19:36:06.247Z,1.70
2022-08-05T19:38:36.606Z,1.50
2022-08-05T19:41:07.015Z,1.50
2022-08-05T19:44:05.750Z,1.60
2022-08-05T19:46:28.975Z,1.50
2022-08-05T19:48:57.522Z,1.40
2022-08-05T19:52:05.889Z,1.70
2022-08-05T19:54:27.166Z,1.55
2022-08-05T19:56:58.735Z,1.57
2022-08-05T19:59:55.027Z,1.58
2022-08-05T20:02:13.813Z,1.60
2022-08-05T20:04:43.193Z,1.40
2022-08-05T20:07:13.751Z,1.60
2022-08-05T20:09:54.909Z,1.53
2022-08-05T20:12:24.563Z,1.60
2022-08-05T20:14:52.992Z,1.70
2022-08-05T20:17:23.569Z,1.38
2022-08-05T20:19:56.759Z,1.33
2022-08-05T20:22:27.164Z,1.30
2022-08-05T20:24:56.643Z,1.42
2022-08-05T20:27:27.307Z,1.42
2022-08-05T20:30:10.258Z,1.33
2022-08-05T20:32:45.241Z,1.50
2022-08-05T20:35:13.253Z,1.30
2022-08-05T20:38:06.173Z,1.40
2022-08-05T20:40:32.680Z,1.25
2022-08-05T20:43:00.441Z,1.30
2022-08-05T20:45:56.387Z,1.50
2022-08-05T20:48:16.644Z,1.40
2022-08-05T20:50:45.412Z,1.40
2022-08-05T20:53:15.931Z,1.80
2022-08-05T20:56:07.827Z,1.63
2022-08-05T20:58:32.935Z,1.65
2022-08-05T21:01:00.586Z,1.73
2022-08-05T21:03:34.516Z,1.60
2022-08-05T21:06:02.695Z,1.50
2022-08-05T21:08:42.292Z,1.48
2022-08-05T21:11:51.624Z,1.60
2022-08-05T21:14:01.140Z,1.40
2022-08-05T21:16:30.819Z,1.40
2022-08-05T21:19:00.130Z,1.50
2022-08-05T21:21:39.063Z,1.48
2022-08-05T21:24:09.794Z,1.33
2022-08-05T21:26:44.093Z,1.40
2022-08-05T21:29:16.823Z,1.50
2022-08-05T21:31:44.840Z,1.40
2022-08-05T21:34:12.453Z,1.50
2022-08-05T21:36:42.309Z,1.70
2022-08-05T21:39:10.389Z,1.50
2022-08-05T21:41:52.828Z,1.30
2022-08-05T21:44:29.035Z,1.40
2022-08-05T21:46:58.334Z,1.48
2022-08-05T21:49:59.397Z,1.25
2022-08-05T21:52:22.768Z,1.40
2022-08-05T21:54:55.809Z,1.50
2022-08-05T21:57:32.567Z,1.20
2022-08-05T22:00:06.041Z,1.40
2022-08-05T22:02:34.621Z,1.60
2022-08-05T22:05:02.168Z,1.53
2022-08-05T22:07:54.167Z,1.52
2022-08-05T22:10:27.217Z,1.52
2022-08-05T22:12:57.157Z,1.60
2022-08-05T22:15:56.663Z,1.52
2022-08-05T22:18:12.963Z,1.47
2022-08-05T22:20:44.119Z,1.70
2022-08-05T22:24:00.684Z,1.35
2022-08-05T22:26:34.118Z,1.67
2022-08-05T22:29:04.441Z,1.65
2022-08-05T22:31:44.570Z,1.83
2022-08-05T22:34:19.995Z,1.50
2022-08-05T22:36:53.549Z,1.40
2022-08-05T22:39:21.573Z,1.80
2022-08-05T22:42:10.555Z,1.50
2022-08-05T22:44:38.153Z,1.40
2022-08-05T22:47:06.580Z,1.40
2022-08-05T22:50:19.259Z,1.38
2022-08-05T22:52:30.163Z,1.20
2022-08-05T22:55:00.339Z,1.40
2022-08-05T22:57:34.357Z,1.53
2022-08-05T23:00:07.828Z,1.30
2022-08-05T23:02:39.793Z,1.40
2022-08-05T23:05:13.972Z,1.40
2022-08-05T23:07:45.514Z,1.50
2022-08-05T23:10:19.517Z,1.50
2022-08-05T23:12:48.009Z,1.40
2022-08-05T23:15:20.851Z,1.30
2022-08-05T23:18:00.434Z,1.35
2022-08-05T23:20:30.197Z,1.50
2022-08-05T23:22:58.753Z,1.23
2022-08-05T23:25:52.145Z,1.55
2022-08-05T23:28:15.845Z,1.30
2022-08-05T23:30:53.516Z,1.50
2022-08-05T23:33:26.316Z,1.48
2022-08-05T23:36:10.554Z,1.60
2022-08-05T23:38:38.438Z,1.40
2022-08-05T23:41:06.103Z,1.38
2022-08-05T23:43:37.396Z,1.38
2022-08-05T23:46:23.707Z,1.25
2022-08-05T23:49:00.277Z,1.40
2022-08-05T23:51:52.920Z,1.55
2022-08-05T23:54:25.049Z,1.50
2022-08-05T23:56:54.050Z,1.50
2022-08-05T23:59:21.655Z,1.55
